Skip Navigation Links Skip Navigation Links

Current Weather

San Francisco International, San Francisco

For information only: do not use for flight planning or navigation.
Latest weather
Observation time Thursday, February 22, 2018 5:56 PM PST
Local time Thursday, February 22, 2018 6:41 PM PST
Flight conditions Visual Meteorological Conditions
Winds
Wind direction West (280°)
Wind speed 31 mph
Wind gusting to 39 mph
Peak wind speed 39 mph, 5:32 PM
Peak wind direction West (280°)
Visibility 10 mi.
Sky condition
Ceiling unlimited
Cloud layer few clouds 3,500 ft.
Cloud layer scattered clouds 6,000 ft.
Temperature 48°F
Dewpoint 33°F
Altimeter 30.17 in.Hg
Derived measurements
Relative humidity 56%
Wind chill 39°F
Density altitude -906 ft.
Sea-level pressure 30.17 in.Hg
Remarks
Automated weather observing station with precipitation discriminator.
METAR KSFO 230156Z 28027G34KT 10SM FEW035 SCT060 09/01 A3017 RMK AO2 PK WND 28034/0132 SLP216 T00890006

Settings

Location code

InnerDrive.Weather 4.0.6615.0 Release CLR 4.0.30319.42000
Copyright ©2018 Inner Drive Technology. All rights reserved. Portions Copyright ©1986-2018 David Braverman.

Find weather

Site navigation


Skip Navigation Links

Place info

Page info

PayPal - The safer, easier way to pay online!

Return home.

Copyright ©2018 Inner Drive Technology. Purveyors of fine, hand-crafted computer software. Page printed 2018-02-23T02:41:24 UTC.